createdAt,value
2022-09-15T00:01:05.916Z,21
2022-09-15T00:11:06.041Z,21
2022-09-15T00:21:06.124Z,21
2022-09-15T00:31:06.260Z,21
2022-09-15T00:41:06.125Z,21
2022-09-15T00:51:06.057Z,21
2022-09-15T01:01:06.163Z,21
2022-09-15T01:11:06.048Z,20.9
2022-09-15T01:21:06.118Z,20.9
2022-09-15T01:31:06.028Z,20.9
2022-09-15T01:41:06.119Z,20.9
2022-09-15T01:51:06.039Z,20.9
2022-09-15T02:01:06.168Z,20.9
2022-09-15T02:11:06.230Z,20.7
2022-09-15T02:21:06.099Z,20.7
2022-09-15T02:31:06.245Z,20.8
2022-09-15T02:41:06.099Z,20.8
2022-09-15T02:51:06.228Z,20.7
2022-09-15T03:01:06.166Z,20.7
2022-09-15T03:11:06.355Z,20.8
2022-09-15T03:21:06.287Z,20.8
2022-09-15T03:31:06.303Z,20.7
2022-09-15T03:41:06.296Z,20.7
2022-09-15T03:51:06.205Z,20.6
2022-09-15T04:01:06.336Z,20.7
2022-09-15T04:11:06.208Z,20.7
2022-09-15T04:21:06.286Z,20.7
2022-09-15T04:31:06.292Z,20.6
2022-09-15T04:41:06.283Z,20.7
2022-09-15T04:51:06.394Z,20.7
2022-09-15T05:01:06.322Z,20.7
2022-09-15T05:11:06.402Z,20.6
2022-09-15T05:21:06.268Z,20.6
2022-09-15T05:31:06.418Z,20.6
2022-09-15T05:41:06.254Z,20.6
2022-09-15T05:51:06.383Z,20.6
2022-09-15T06:01:06.457Z,20.6
2022-09-15T06:11:06.376Z,20.6
2022-09-15T06:21:06.452Z,20.6
2022-09-15T06:31:06.374Z,20.5
2022-09-15T06:41:06.447Z,20.6
2022-09-15T06:51:06.378Z,20.5
2022-09-15T07:01:06.447Z,20.6
2022-09-15T07:11:06.369Z,20.6
2022-09-15T07:21:06.427Z,20.4
2022-09-15T07:31:06.555Z,20.5
2022-09-15T07:41:06.441Z,20.6
2022-09-15T07:51:06.573Z,20.6
2022-09-15T08:01:06.493Z,20.6
2022-09-15T08:11:06.547Z,20.6
2022-09-15T08:21:06.424Z,20.5
2022-09-15T08:31:06.571Z,20.6
2022-09-15T08:41:06.424Z,20.6
2022-09-15T08:51:06.553Z,20.6
2022-09-15T09:01:06.633Z,20.9
2022-09-15T09:11:06.615Z,20.9
2022-09-15T09:21:06.651Z,20.9
2022-09-15T09:31:06.643Z,21
2022-09-15T09:41:06.667Z,21
2022-09-15T09:51:06.696Z,21
2022-09-15T10:01:06.691Z,20.9
2022-09-15T10:11:06.569Z,20.9
2022-09-15T10:21:06.704Z,20.9
2022-09-15T10:31:06.581Z,20.9
2022-09-15T10:41:06.648Z,20.9
2022-09-15T10:51:06.782Z,21
2022-09-15T11:01:06.709Z,21
2022-09-15T11:11:06.802Z,21
2022-09-15T11:21:06.657Z,21
2022-09-15T11:31:06.861Z,21
2022-09-15T11:41:06.630Z,21
2022-09-15T11:51:06.816Z,21.2
2022-09-15T12:01:06.708Z,21.2
2022-09-15T12:11:06.747Z,21.3
2022-09-15T12:21:06.819Z,21.4
2022-09-15T12:31:06.770Z,21.2
2022-09-15T12:41:06.812Z,21.5
2022-09-15T12:51:07.129Z,21.7
2022-09-15T13:01:17.814Z,21.8
2022-09-15T13:11:06.826Z,22.1
2022-09-15T13:21:06.804Z,22.2
2022-09-15T13:31:07.116Z,22.2
2022-09-15T13:41:06.881Z,22.3
2022-09-15T13:51:06.920Z,22.5
2022-09-15T14:01:07.103Z,22.3
2022-09-15T14:11:06.918Z,22.1
2022-09-15T14:21:06.785Z,22.1
2022-09-15T14:31:06.929Z,22.1
2022-09-15T14:41:06.792Z,22
2022-09-15T14:51:06.910Z,22.2
2022-09-15T15:01:06.998Z,22.6
2022-09-15T15:11:06.900Z,22.8
2022-09-15T15:21:06.978Z,22.4
2022-09-15T15:31:06.901Z,22
2022-09-15T15:41:06.979Z,21.8
2022-09-15T15:51:06.892Z,21.7
2022-09-15T16:01:07.010Z,21.7
2022-09-15T16:11:07.087Z,21.6
2022-09-15T16:21:06.980Z,22
2022-09-15T16:31:07.135Z,22.4
2022-09-15T16:41:06.952Z,22.1
2022-09-15T16:51:23.322Z,22.1
2022-09-15T17:01:07.002Z,22
2022-09-15T17:11:07.066Z,22
2022-09-15T17:21:06.920Z,21.9
2022-09-15T17:31:07.232Z,21.8
2022-09-15T17:41:07.013Z,21.6
2022-09-15T17:51:07.540Z,21.7
2022-09-15T18:01:07.006Z,21.6
2022-09-15T18:11:07.253Z,21.5
2022-09-15T18:21:07.016Z,21.5
2022-09-15T18:31:07.300Z,21.5
2022-09-15T18:41:07.003Z,21.4
2022-09-15T18:51:07.112Z,21.4
2022-09-15T19:01:07.324Z,21.4
2022-09-15T19:11:07.116Z,21.3
2022-09-15T19:21:07.188Z,21.3
2022-09-15T19:31:07.149Z,21.3
2022-09-15T19:41:07.198Z,21.4
2022-09-15T19:51:07.093Z,21.3
2022-09-15T20:01:07.290Z,21.2
2022-09-15T20:11:07.296Z,21.2
2022-09-15T20:21:07.182Z,21.3
2022-09-15T20:31:07.335Z,21.1
2022-09-15T20:41:07.161Z,21.3
2022-09-15T20:51:07.289Z,21.3
2022-09-15T21:01:07.413Z,21.3
2022-09-15T21:11:07.300Z,21.2
2022-09-15T21:21:07.167Z,21.1
2022-09-15T21:31:07.294Z,21.1
2022-09-15T21:41:07.364Z,21
2022-09-15T21:51:07.268Z,21
2022-09-15T22:01:07.410Z,21
2022-09-15T22:11:07.301Z,21.1
2022-09-15T22:21:07.348Z,21
2022-09-15T22:31:07.352Z,21.1
2022-09-15T22:41:07.402Z,21.1
2022-09-15T22:51:07.316Z,21.1
2022-09-15T23:01:07.479Z,21.1
2022-09-15T23:11:07.296Z,21.1
2022-09-15T23:21:07.459Z,21.1
2022-09-15T23:31:07.592Z,21.1
2022-09-15T23:41:07.523Z,21.1
2022-09-15T23:51:07.508Z,21
